createdAt,value
2019-04-21T00:00:17.624Z,0
2019-04-21T00:01:14.632Z,0
2019-04-21T00:02:18.493Z,0
2019-04-21T00:03:17.991Z,0
2019-04-21T00:04:24.426Z,0
2019-04-21T00:05:29.665Z,0
2019-04-21T00:06:29.670Z,0
2019-04-21T00:07:24.848Z,0
2019-04-21T00:08:30.427Z,0
2019-04-21T00:09:24.017Z,0
2019-04-21T00:10:26.763Z,0
2019-04-21T00:11:21.812Z,0
2019-04-21T00:12:17.772Z,0
2019-04-21T00:13:11.832Z,0
2019-04-21T00:14:08.790Z,0
2019-04-21T00:15:06.012Z,0
2019-04-21T00:16:00.126Z,0
2019-04-21T00:17:00.443Z,0
2019-04-21T00:17:56.980Z,0
2019-04-21T00:18:59.829Z,0
2019-04-21T00:19:49.710Z,0
2019-04-21T00:20:51.470Z,0
2019-04-21T00:21:53.050Z,0
2019-04-21T00:22:55.853Z,0
2019-04-21T00:24:00.184Z,0
2019-04-21T00:24:56.701Z,0
2019-04-21T00:25:51.103Z,0
2019-04-21T00:26:57.206Z,0
2019-04-21T00:27:56.244Z,0
2019-04-21T00:29:03.326Z,0
2019-04-21T00:29:57.864Z,0
2019-04-21T00:30:55.371Z,0
2019-04-21T00:31:45.338Z,0
2019-04-21T00:32:44.892Z,0
2019-04-21T00:33:34.164Z,0
2019-04-21T00:34:30.153Z,0
2019-04-21T00:35:30.949Z,0
2019-04-21T00:36:38.144Z,0
2019-04-21T00:37:45.046Z,0
2019-04-21T00:38:45.212Z,0
2019-04-21T00:39:55.562Z,0
2019-04-21T00:40:41.255Z,0
2019-04-21T00:41:43.215Z,0
2019-04-21T00:42:38.420Z,0
2019-04-21T00:43:32.755Z,0
2019-04-21T00:44:26.755Z,0
2019-04-21T00:45:27.334Z,0
2019-04-21T00:46:30.630Z,0
2019-04-21T00:47:33.927Z,0
2019-04-21T00:48:34.189Z,0
2019-04-21T00:49:23.069Z,0
2019-04-21T00:50:31.226Z,0
2019-04-21T00:51:38.266Z,0
2019-04-21T00:52:37.777Z,0
2019-04-21T00:53:28.537Z,0
2019-04-21T00:54:32.608Z,0
2019-04-21T00:55:26.519Z,0
2019-04-21T00:56:21.088Z,0
2019-04-21T00:57:23.977Z,0
2019-04-21T00:58:22.307Z,0
2019-04-21T00:59:19.120Z,0
2019-04-21T01:00:17.608Z,0
2019-04-21T01:01:14.633Z,0
2019-04-21T01:02:08.895Z,0
2019-04-21T01:03:14.054Z,0
2019-04-21T01:04:07.694Z,0
2019-04-21T01:05:10.714Z,0
2019-04-21T01:06:09.590Z,0
2019-04-21T01:07:07.031Z,0
2019-04-21T01:08:04.533Z,0
2019-04-21T01:09:02.503Z,0
2019-04-21T01:09:52.374Z,0
2019-04-21T01:10:52.439Z,0
2019-04-21T01:12:01.036Z,0
2019-04-21T01:12:54.491Z,0
2019-04-21T01:13:57.828Z,0
2019-04-21T01:14:55.108Z,0
2019-04-21T01:15:52.656Z,0
2019-04-21T01:16:51.198Z,0
2019-04-21T01:18:49.127Z,0
2019-04-21T01:19:43.715Z,0
2019-04-21T01:20:24.810Z,0
2019-04-21T01:21:23.563Z,0
2019-04-21T01:22:22.110Z,0
2019-04-21T01:23:21.334Z,0
2019-04-21T01:24:26.644Z,0
2019-04-21T01:25:25.492Z,0
2019-04-21T01:26:29.527Z,0
2019-04-21T01:27:24.910Z,0
2019-04-21T01:28:28.777Z,0
2019-04-21T01:29:36.726Z,0
2019-04-21T01:30:28.223Z,0
2019-04-21T01:31:22.344Z,0
2019-04-21T01:32:29.099Z,0
2019-04-21T01:33:32.218Z,0
2019-04-21T01:34:28.649Z,0
2019-04-21T01:35:25.243Z,0
2019-04-21T01:36:17.607Z,0
2019-04-21T01:37:18.282Z,0
2019-04-21T01:38:21.456Z,0
2019-04-21T01:39:19.422Z,0
2019-04-21T01:40:22.493Z,0
2019-04-21T01:41:19.692Z,0
2019-04-21T01:42:15.578Z,0
2019-04-21T01:43:13.234Z,0
2019-04-21T01:44:12.003Z,0
2019-04-21T01:45:09.127Z,0
2019-04-21T01:46:08.912Z,0
2019-04-21T01:47:02.720Z,0
2019-04-21T01:48:00.946Z,0
2019-04-21T01:48:56.440Z,0
2019-04-21T01:49:55.463Z,0
2019-04-21T01:51:00.417Z,0
2019-04-21T01:52:08.631Z,0
2019-04-21T01:53:01.804Z,0
2019-04-21T01:54:03.137Z,0
2019-04-21T01:55:00.032Z,0
2019-04-21T01:55:53.944Z,0
2019-04-21T01:56:50.887Z,0
2019-04-21T01:57:49.157Z,0
2019-04-21T01:58:42.423Z,0
2019-04-21T01:59:42.389Z,0
2019-04-21T02:00:43.464Z,0
2019-04-21T02:01:45.665Z,0
2019-04-21T02:02:54.012Z,0
2019-04-21T02:05:30.967Z,0
2019-04-21T02:06:26.930Z,0
2019-04-21T02:07:26.567Z,0
2019-04-21T02:08:21.348Z,0
2019-04-21T02:09:18.728Z,0
2019-04-21T02:10:26.480Z,0
2019-04-21T02:11:22.915Z,0
2019-04-21T02:12:18.650Z,0
2019-04-21T02:13:11.595Z,0
2019-04-21T02:14:14.558Z,0
2019-04-21T02:15:16.451Z,0
2019-04-21T02:16:27.968Z,0
2019-04-21T02:17:13.130Z,0
2019-04-21T02:18:11.741Z,0
2019-04-21T02:19:04.223Z,0
2019-04-21T02:20:02.400Z,0
2019-04-21T02:20:52.544Z,0
2019-04-21T02:21:58.989Z,0
2019-04-21T02:23:26.153Z,0
2019-04-21T02:24:03.567Z,0
2019-04-21T02:25:00.822Z,0
2019-04-21T02:26:03.115Z,0
2019-04-21T02:26:58.991Z,0
2019-04-21T02:28:03.036Z,0
2019-04-21T02:28:59.925Z,0
2019-04-21T02:29:59.610Z,0
2019-04-21T02:33:18.278Z,0
2019-04-21T02:34:59.496Z,0
2019-04-21T02:36:00.090Z,0
2019-04-21T02:37:03.289Z,0
2019-04-21T02:38:55.527Z,0
2019-04-21T02:39:56.418Z,0
2019-04-21T02:40:49.299Z,0
2019-04-21T02:43:05.195Z,0
2019-04-21T02:46:46.167Z,0
2019-04-21T02:47:44.341Z,0
2019-04-21T02:48:43.127Z,0
2019-04-21T02:49:44.713Z,0
2019-04-21T02:52:35.236Z,0
2019-04-21T02:53:38.935Z,0
2019-04-21T02:57:21.235Z,0
2019-04-21T02:58:34.195Z,0
2019-04-21T02:59:22.499Z,0
2019-04-21T03:00:23.544Z,0
2019-04-21T03:01:30.917Z,0
2019-04-21T03:02:24.426Z,0
2019-04-21T03:03:19.491Z,0
2019-04-21T03:04:18.290Z,0
2019-04-21T03:05:20.126Z,0
2019-04-21T03:07:29.818Z,0
2019-04-21T03:08:33.490Z,0
2019-04-21T03:09:17.331Z,0
2019-04-21T03:10:10.524Z,0
2019-04-21T03:12:04.231Z,0
2019-04-21T03:13:03.322Z,0
2019-04-21T03:15:03.449Z,0
2019-04-21T03:46:40.853Z,0
2019-04-21T03:47:34.352Z,0
2019-04-21T03:48:50.962Z,0
2019-04-21T03:49:38.839Z,0
2019-04-21T03:50:32.939Z,0
2019-04-21T03:52:38.545Z,0
2019-04-21T03:54:24.943Z,0
2019-04-21T03:55:48.625Z,0
2019-04-21T03:56:50.747Z,0
2019-04-21T03:57:31.130Z,0
2019-04-21T03:59:15.863Z,0
2019-04-21T04:00:33.430Z,0
2019-04-21T04:01:15.387Z,0
2019-04-21T04:02:22.617Z,0
2019-04-21T04:05:19.471Z,0
2019-04-21T04:06:18.946Z,0
2019-04-21T04:07:30.737Z,0
2019-04-21T04:10:07.500Z,0
2019-04-21T04:12:00.793Z,0
2019-04-21T04:13:04.343Z,0
2019-04-21T04:15:00.321Z,0
2019-04-21T04:21:47.345Z,5
2019-04-21T04:22:55.037Z,5
2019-04-21T04:23:44.833Z,5
2019-04-21T04:24:38.646Z,5
2019-04-21T04:25:33.251Z,5
2019-04-21T04:27:37.625Z,10
2019-04-21T04:28:37.966Z,10
2019-04-21T04:29:23.854Z,10
2019-04-21T04:30:29.137Z,10
2019-04-21T04:32:28.285Z,10
2019-04-21T04:33:36.965Z,15
2019-04-21T04:47:49.580Z,30
2019-04-21T04:48:51.033Z,30
2019-04-21T04:49:51.311Z,30
2019-04-21T04:50:49.134Z,35
2019-04-21T04:51:55.736Z,35
2019-04-21T04:52:43.964Z,35
2019-04-21T04:53:43.743Z,35
2019-04-21T04:55:38.669Z,40
2019-04-21T04:56:38.104Z,40
2019-04-21T04:57:46.350Z,40
2019-04-21T04:58:59.239Z,40
2019-04-21T04:59:42.229Z,45
2019-04-21T05:00:34.190Z,45
2019-04-21T05:01:40.274Z,45
2019-04-21T05:02:32.996Z,45
2019-04-21T05:03:34.429Z,50
2019-04-21T05:04:35.156Z,50
2019-04-21T05:05:26.183Z,50
2019-04-21T05:07:20.986Z,50
2019-04-21T05:08:33.339Z,55
2019-04-21T05:09:20.929Z,55
2019-04-21T05:10:15.392Z,55
2019-04-21T05:11:59.603Z,60
2019-04-21T05:13:15.905Z,60
2019-04-21T05:16:09.606Z,60
2019-04-21T05:17:13.816Z,60
2019-04-21T05:18:04.414Z,65
2019-04-21T05:20:08.240Z,65
2019-04-21T05:21:12.214Z,65
2019-04-21T05:22:02.979Z,65
2019-04-21T05:22:52.785Z,70
2019-04-21T05:23:50.892Z,70
2019-04-21T05:24:43.834Z,70
2019-04-21T05:25:41.403Z,70
2019-04-21T05:26:43.105Z,70
2019-04-21T05:27:37.842Z,75
2019-04-21T05:28:36.789Z,75
2019-04-21T05:29:49.019Z,80
2019-04-21T05:30:48.626Z,80
2019-04-21T05:31:44.078Z,80
2019-04-21T05:32:39.408Z,80
2019-04-21T05:33:37.446Z,85
2019-04-21T05:34:41.033Z,85
2019-04-21T05:35:31.987Z,85
2019-04-21T05:36:33.845Z,80
2019-04-21T05:37:28.360Z,85
2019-04-21T05:38:27.056Z,90
2019-04-21T05:39:22.980Z,90
2019-04-21T05:40:21.753Z,95
2019-04-21T05:41:18.023Z,95
2019-04-21T05:42:12.224Z,100
2019-04-21T05:43:27.604Z,100
2019-04-21T05:44:27.659Z,105
2019-04-21T05:45:22.306Z,105
2019-04-21T05:46:18.243Z,110
2019-04-21T05:49:13.747Z,100
2019-04-21T05:50:11.240Z,100
2019-04-21T05:51:08.743Z,95
2019-04-21T05:52:07.652Z,95
2019-04-21T05:53:03.599Z,95
2019-04-21T05:54:14.554Z,95
2019-04-21T05:55:09.015Z,100
2019-04-21T05:56:09.759Z,100
2019-04-21T05:57:05.041Z,100
2019-04-21T05:58:02.382Z,110
2019-04-21T05:59:01.926Z,105
2019-04-21T05:59:58.925Z,105
2019-04-21T06:02:05.697Z,110
2019-04-21T06:03:03.553Z,110
2019-04-21T06:04:03.314Z,110
2019-04-21T06:05:05.215Z,115
2019-04-21T06:06:00.080Z,110
2019-04-21T06:06:56.564Z,110
2019-04-21T06:07:51.716Z,110
2019-04-21T06:08:47.657Z,110
2019-04-21T06:10:52.132Z,105
2019-04-21T06:11:42.074Z,105
2019-04-21T06:12:48.662Z,105
2019-04-21T06:13:47.926Z,105
2019-04-21T06:15:42.743Z,110
2019-04-21T06:16:47.787Z,115
2019-04-21T06:17:42.660Z,115
2019-04-21T06:18:41.959Z,115
2019-04-21T06:19:42.994Z,120
2019-04-21T06:20:33.227Z,120
2019-04-21T06:21:32.951Z,120
2019-04-21T06:22:28.678Z,120
2019-04-21T06:23:29.785Z,120
2019-04-21T06:24:29.684Z,120
2019-04-21T06:27:37.562Z,120
2019-04-21T06:28:19.002Z,120
2019-04-21T06:29:23.115Z,120
2019-04-21T06:30:17.509Z,120
2019-04-21T06:31:33.417Z,120
2019-04-21T06:33:19.448Z,125
2019-04-21T06:34:16.172Z,125
2019-04-21T06:35:19.310Z,125
2019-04-21T06:36:30.437Z,130
2019-04-21T06:37:34.073Z,130
2019-04-21T06:38:12.916Z,135
2019-04-21T06:41:11.269Z,145
2019-04-21T06:42:02.305Z,150
2019-04-21T06:43:10.755Z,160
2019-04-21T06:45:58.681Z,185
2019-04-21T06:46:57.362Z,190
2019-04-21T06:47:57.255Z,200
2019-04-21T06:48:59.396Z,205
2019-04-21T06:49:53.508Z,205
2019-04-21T06:50:58.969Z,205
2019-04-21T06:51:46.665Z,210
2019-04-21T06:53:52.077Z,205
2019-04-21T06:56:36.140Z,210
2019-04-21T06:57:28.311Z,210
2019-04-21T06:58:24.838Z,210
2019-04-21T06:59:20.629Z,210
2019-04-21T07:00:18.281Z,210
2019-04-21T07:01:22.805Z,210
2019-04-21T07:02:35.942Z,210
2019-04-21T07:03:26.591Z,210
2019-04-21T07:04:22.158Z,205
2019-04-21T07:05:19.846Z,205
2019-04-21T07:06:12.327Z,205
2019-04-21T07:07:11.384Z,205
2019-04-21T07:09:20.006Z,205
2019-04-21T07:10:10.190Z,205
2019-04-21T07:11:08.163Z,205
2019-04-21T07:12:05.619Z,205
2019-04-21T07:13:03.027Z,200
2019-04-21T07:14:19.234Z,200
2019-04-21T07:15:03.124Z,200
2019-04-21T07:16:03.884Z,200
2019-04-21T07:17:04.903Z,200
2019-04-21T07:24:47.742Z,190
2019-04-21T07:25:50.954Z,190
2019-04-21T07:26:50.580Z,190
2019-04-21T07:27:46.468Z,190
2019-04-21T07:28:47.510Z,190
2019-04-21T07:29:47.244Z,185
2019-04-21T07:30:43.439Z,185
2019-04-21T07:31:46.757Z,185
2019-04-21T07:32:39.864Z,185
2019-04-21T07:36:21.202Z,180
2019-04-21T07:37:10.086Z,175
2019-04-21T07:38:16.149Z,175
2019-04-21T07:39:10.119Z,175
2019-04-21T07:40:08.975Z,175
2019-04-21T07:41:01.900Z,170
2019-04-21T07:42:04.379Z,170
2019-04-21T07:43:02.018Z,170
2019-04-21T07:43:58.826Z,170
2019-04-21T07:44:57.480Z,170
2019-04-21T07:45:57.914Z,170
2019-04-21T07:46:57.197Z,170
2019-04-21T07:48:00.644Z,165
2019-04-21T07:48:59.701Z,165
2019-04-21T07:50:57.286Z,160
2019-04-21T07:53:49.230Z,160
2019-04-21T07:54:44.097Z,155
2019-04-21T07:56:27.322Z,155
2019-04-21T07:57:35.038Z,150
2019-04-21T07:58:45.362Z,140
2019-04-21T07:59:54.706Z,135
2019-04-21T08:00:44.608Z,130
2019-04-21T08:01:49.638Z,130
2019-04-21T08:03:33.135Z,135
2019-04-21T08:04:50.900Z,135
2019-04-21T08:05:24.649Z,130
2019-04-21T08:06:40.148Z,130
2019-04-21T08:07:30.430Z,130
2019-04-21T08:08:20.593Z,130
2019-04-21T08:09:18.061Z,130
2019-04-21T08:10:20.874Z,130
2019-04-21T08:11:14.777Z,130
2019-04-21T08:12:14.103Z,125
2019-04-21T08:13:18.290Z,125
2019-04-21T08:14:16.572Z,125
2019-04-21T08:15:19.276Z,125
2019-04-21T08:16:17.053Z,125
2019-04-21T08:17:09.174Z,120
2019-04-21T08:18:11.510Z,120
2019-04-21T08:19:12.542Z,120
2019-04-21T08:20:06.057Z,120
2019-04-21T08:21:05.646Z,120
2019-04-21T08:22:10.648Z,120
2019-04-21T08:23:04.176Z,120
2019-04-21T08:23:59.446Z,120
2019-04-21T08:25:02.679Z,115
2019-04-21T08:27:04.779Z,115
2019-04-21T08:27:58.263Z,115
2019-04-21T08:29:00.823Z,115
2019-04-21T08:29:57.853Z,115
2019-04-21T08:30:54.043Z,115
2019-04-21T08:31:55.734Z,115
2019-04-21T08:33:52.356Z,115
2019-04-21T08:34:53.686Z,115
2019-04-21T08:36:44.419Z,115
2019-04-21T08:37:42.817Z,115
2019-04-21T08:39:47.704Z,115
2019-04-21T08:40:55.678Z,115
2019-04-21T08:41:38.430Z,110
2019-04-21T08:42:37.919Z,110
2019-04-21T08:43:40.569Z,110
2019-04-21T08:44:39.926Z,110
2019-04-21T08:45:35.209Z,110
2019-04-21T08:46:30.885Z,110
2019-04-21T08:47:32.922Z,110
2019-04-21T08:48:28.333Z,110
2019-04-21T08:49:26.082Z,110
2019-04-21T08:50:25.205Z,110
2019-04-21T08:51:30.840Z,110
2019-04-21T08:53:24.441Z,110
2019-04-21T08:54:21.361Z,110
2019-04-21T08:55:24.770Z,110
2019-04-21T08:56:21.100Z,110
2019-04-21T08:57:21.332Z,110
2019-04-21T08:58:21.669Z,110
2019-04-21T08:59:18.570Z,110
2019-04-21T09:01:16.983Z,110
2019-04-21T09:02:06.094Z,110
2019-04-21T09:03:06.261Z,110
2019-04-21T09:04:05.897Z,110
2019-04-21T09:05:04.449Z,110
2019-04-21T09:06:07.359Z,110
2019-04-21T09:08:03.679Z,110
2019-04-21T09:09:03.417Z,110
2019-04-21T09:09:57.047Z,110
2019-04-21T09:10:58.870Z,110
2019-04-21T09:11:53.685Z,110
2019-04-21T09:12:51.577Z,110
2019-04-21T09:13:53.898Z,110
2019-04-21T09:14:54.050Z,110
2019-04-21T09:15:47.025Z,110
2019-04-21T09:16:45.800Z,110
2019-04-21T09:17:40.712Z,110
2019-04-21T09:18:40.292Z,110
2019-04-21T09:20:07.409Z,110
2019-04-21T09:20:56.907Z,110
2019-04-21T09:21:43.427Z,110
2019-04-21T09:22:41.041Z,110
2019-04-21T09:23:38.077Z,110
2019-04-21T09:26:25.111Z,110
2019-04-21T09:27:19.685Z,110
2019-04-21T09:28:19.681Z,110
2019-04-21T09:29:10.671Z,105
2019-04-21T09:30:04.791Z,105
2019-04-21T09:31:03.170Z,105
2019-04-21T09:31:59.948Z,105
2019-04-21T09:32:59.794Z,105
2019-04-21T09:37:49.129Z,100
2019-04-21T09:38:41.973Z,100
2019-04-21T09:39:40.854Z,100
2019-04-21T09:40:39.781Z,100
2019-04-21T09:41:36.047Z,100
2019-04-21T09:42:40.043Z,100
2019-04-21T09:43:39.876Z,100
2019-04-21T09:44:34.990Z,100
2019-04-21T09:45:30.634Z,95
2019-04-21T09:46:27.737Z,95
2019-04-21T09:47:34.901Z,95
2019-04-21T09:48:26.572Z,95
2019-04-21T09:49:27.126Z,95
2019-04-21T09:50:22.342Z,95
2019-04-21T09:51:21.330Z,95
2019-04-21T09:52:25.146Z,95
2019-04-21T09:53:26.785Z,95
2019-04-21T09:54:22.793Z,95
2019-04-21T09:55:19.311Z,95
2019-04-21T09:56:17.955Z,95
2019-04-21T09:57:21.581Z,95
2019-04-21T09:58:21.449Z,95
2019-04-21T09:59:17.900Z,95
2019-04-21T10:00:14.941Z,95
2019-04-21T10:01:14.267Z,95
2019-04-21T10:02:14.126Z,95
2019-04-21T10:03:08.697Z,95
2019-04-21T10:04:05.216Z,95
2019-04-21T10:05:02.068Z,95
2019-04-21T10:06:00.741Z,95
2019-04-21T10:06:59.483Z,95
2019-04-21T10:07:58.043Z,95
2019-04-21T10:09:02.608Z,95
2019-04-21T10:09:55.137Z,90
2019-04-21T10:10:54.682Z,90
2019-04-21T10:11:52.709Z,90
2019-04-21T10:12:51.963Z,90
2019-04-21T10:13:50.697Z,90
2019-04-21T10:14:49.394Z,90
2019-04-21T10:15:48.409Z,90
2019-04-21T10:16:45.813Z,90
2019-04-21T10:17:44.606Z,90
2019-04-21T10:18:43.836Z,90
2019-04-21T10:21:25.769Z,90
2019-04-21T10:22:23.199Z,90
2019-04-21T10:23:21.206Z,90
2019-04-21T10:24:20.160Z,90
2019-04-21T10:25:18.654Z,90
2019-04-21T10:28:41.291Z,90
2019-04-21T10:29:42.538Z,90
2019-04-21T10:30:38.490Z,90
2019-04-21T10:31:36.753Z,90
2019-04-21T10:32:34.750Z,90
2019-04-21T10:33:34.474Z,90
2019-04-21T10:34:31.987Z,90
2019-04-21T10:35:31.022Z,90
2019-04-21T10:36:29.393Z,90
2019-04-21T10:37:41.834Z,90
2019-04-21T10:38:35.293Z,90
2019-04-21T10:39:25.278Z,90
2019-04-21T10:40:23.856Z,90
2019-04-21T10:50:14.260Z,90
2019-04-21T10:51:13.138Z,90
2019-04-21T10:52:12.933Z,90
2019-04-21T10:53:11.108Z,90
2019-04-21T10:54:09.092Z,90
2019-04-21T10:55:26.113Z,90
2019-04-21T10:56:14.410Z,90
2019-04-21T10:57:06.283Z,90
2019-04-21T10:58:04.468Z,90
2019-04-21T10:59:02.507Z,90
2019-04-21T11:00:01.340Z,90
2019-04-21T11:01:00.014Z,90
2019-04-21T11:01:58.939Z,90
2019-04-21T11:02:56.931Z,90
2019-04-21T11:03:55.578Z,90
2019-04-21T11:04:54.464Z,90
2019-04-21T11:05:52.731Z,90
2019-04-21T11:06:52.630Z,90
2019-04-21T11:08:00.766Z,90
2019-04-21T11:08:52.156Z,90
2019-04-21T11:09:47.184Z,90
2019-04-21T11:10:45.772Z,90
2019-04-21T11:11:46.382Z,90
2019-04-21T11:12:44.599Z,90
2019-04-21T11:13:41.853Z,90
2019-04-21T11:14:41.150Z,90
2019-04-21T11:15:39.296Z,90
2019-04-21T11:16:39.127Z,90
2019-04-21T11:17:36.616Z,90
2019-04-21T11:18:35.858Z,90
2019-04-21T11:19:34.852Z,90
2019-04-21T11:20:33.041Z,90
2019-04-21T11:21:31.292Z,90
2019-04-21T11:22:30.728Z,90
2019-04-21T11:23:28.999Z,90
2019-04-21T11:24:27.257Z,90
2019-04-21T11:25:26.213Z,90
2019-04-21T11:26:24.393Z,90
2019-04-21T11:27:23.073Z,90
2019-04-21T11:28:22.837Z,90
2019-04-21T11:29:21.206Z,90
2019-04-21T11:30:19.985Z,90
2019-04-21T11:31:18.763Z,90
2019-04-21T11:32:16.813Z,90
2019-04-21T11:33:15.334Z,90
2019-04-21T11:34:13.564Z,90
2019-04-21T11:35:12.903Z,90
2019-04-21T11:36:11.145Z,90
2019-04-21T11:37:10.178Z,90
2019-04-21T11:38:14.857Z,90
2019-04-21T11:39:19.709Z,90
2019-04-21T11:40:10.680Z,90
2019-04-21T11:41:05.467Z,90
2019-04-21T11:42:03.708Z,90
2019-04-21T11:43:02.294Z,90
2019-04-21T11:44:01.474Z,90
2019-04-21T11:45:00.628Z,90
2019-04-21T11:45:58.431Z,90
2019-04-21T11:46:58.337Z,90
2019-04-21T11:47:56.391Z,95
2019-04-21T11:48:54.756Z,90
2019-04-21T11:49:53.253Z,90
2019-04-21T11:50:53.037Z,90
2019-04-21T11:51:51.127Z,90
2019-04-21T11:52:49.335Z,90
2019-04-21T11:53:48.762Z,90
2019-04-21T11:54:46.779Z,90
2019-04-21T11:55:48.143Z,90
2019-04-21T11:56:45.064Z,90
2019-04-21T11:57:45.052Z,90
2019-04-21T11:58:41.529Z,90
2019-04-21T11:59:39.808Z,90
2019-04-21T12:00:38.338Z,90
2019-04-21T12:01:37.048Z,90
2019-04-21T12:02:35.852Z,90
2019-04-21T12:03:35.734Z,90
2019-04-21T12:04:33.669Z,90
2019-04-21T12:05:31.513Z,90
2019-04-21T12:06:34.813Z,90
2019-04-21T12:07:29.287Z,90
2019-04-21T12:08:34.915Z,90
2019-04-21T12:09:27.178Z,90
2019-04-21T12:10:24.801Z,90
2019-04-21T12:11:23.503Z,90
2019-04-21T12:12:23.229Z,90
2019-04-21T12:13:22.288Z,90
2019-04-21T12:14:21.657Z,90
2019-04-21T12:15:19.202Z,90
2019-04-21T12:16:18.968Z,90
2019-04-21T12:17:16.450Z,90
2019-04-21T12:18:15.460Z,90
2019-04-21T12:19:14.534Z,90
2019-04-21T12:20:12.681Z,90
2019-04-21T12:21:11.444Z,90
2019-04-21T12:22:17.954Z,90
2019-04-21T12:23:08.780Z,90
2019-04-21T12:24:07.201Z,90
2019-04-21T12:25:07.123Z,90
2019-04-21T12:26:05.100Z,90
2019-04-21T12:27:04.024Z,90
2019-04-21T12:28:02.067Z,90
2019-04-21T12:29:01.782Z,90
2019-04-21T12:29:59.654Z,90
2019-04-21T12:30:57.962Z,90
2019-04-21T12:31:57.196Z,90
2019-04-21T12:32:55.957Z,90
2019-04-21T12:33:54.011Z,90
2019-04-21T12:34:53.431Z,90
2019-04-21T12:35:51.538Z,90
2019-04-21T12:36:50.748Z,90
2019-04-21T12:37:48.976Z,90
2019-04-21T12:38:53.629Z,90
2019-04-21T12:39:45.534Z,90
2019-04-21T12:40:44.368Z,90
2019-04-21T12:41:42.818Z,90
2019-04-21T12:42:42.327Z,90
2019-04-21T12:43:40.161Z,90
2019-04-21T12:44:39.136Z,90
2019-04-21T12:45:37.805Z,90
2019-04-21T12:46:36.111Z,90
2019-04-21T12:47:34.890Z,90
2019-04-21T12:48:33.921Z,90
2019-04-21T12:49:32.263Z,90
2019-04-21T12:50:32.042Z,90
2019-04-21T12:51:30.146Z,90
2019-04-21T12:52:29.386Z,90
2019-04-21T12:53:27.656Z,90
2019-04-21T12:54:25.858Z,90
2019-04-21T12:55:30.439Z,90
2019-04-21T12:56:23.386Z,95
2019-04-21T12:57:21.550Z,90
2019-04-21T12:58:21.352Z,95
2019-04-21T12:59:19.079Z,95
2019-04-21T13:00:18.389Z,95
2019-04-21T13:01:16.735Z,95
2019-04-21T13:02:15.820Z,95
2019-04-21T13:03:14.115Z,95
2019-04-21T13:04:11.967Z,95
2019-04-21T13:05:11.644Z,95
2019-04-21T13:06:09.880Z,95
2019-04-21T13:07:08.036Z,95
2019-04-21T13:08:07.169Z,95
2019-04-21T13:09:09.297Z,95
2019-04-21T13:10:04.385Z,95
2019-04-21T13:11:02.866Z,95
2019-04-21T13:12:01.512Z,95
2019-04-21T13:13:00.015Z,95
2019-04-21T13:13:59.834Z,95
2019-04-21T13:14:59.207Z,95
2019-04-21T13:15:57.576Z,95
2019-04-21T13:16:55.176Z,95
2019-04-21T13:17:54.203Z,95
2019-04-21T13:18:53.298Z,95
2019-04-21T13:19:51.400Z,95
2019-04-21T13:20:49.181Z,95
2019-04-21T13:21:47.939Z,95
2019-04-21T13:22:46.287Z,95
2019-04-21T13:23:45.179Z,95
2019-04-21T13:24:44.089Z,95
2019-04-21T13:25:43.369Z,95
2019-04-21T13:26:47.106Z,95
2019-04-21T13:27:40.833Z,95
2019-04-21T13:28:38.211Z,95
2019-04-21T13:29:36.775Z,95
2019-04-21T13:30:36.078Z,95
2019-04-21T13:31:34.200Z,95
2019-04-21T13:32:33.158Z,95
2019-04-21T13:33:31.431Z,95
2019-04-21T13:34:30.105Z,95
2019-04-21T13:35:28.968Z,95
2019-04-21T13:36:27.679Z,95
2019-04-21T13:37:25.875Z,95
2019-04-21T13:38:32.917Z,95
2019-04-21T13:39:50.096Z,95
2019-04-21T13:40:39.644Z,95
2019-04-21T13:41:32.434Z,95
2019-04-21T13:42:26.608Z,95
2019-04-21T13:43:18.977Z,95
2019-04-21T13:44:17.752Z,95
2019-04-21T13:45:16.251Z,95
2019-04-21T13:46:13.767Z,95
2019-04-21T13:47:12.554Z,95
2019-04-21T13:48:12.641Z,95
2019-04-21T13:50:35.255Z,95
2019-04-21T13:51:34.096Z,95
2019-04-21T13:52:33.018Z,95
2019-04-21T13:53:32.563Z,95
2019-04-21T13:54:29.622Z,95
2019-04-21T13:55:27.670Z,95
2019-04-21T13:56:26.681Z,95
2019-04-21T13:57:26.204Z,95
2019-04-21T13:58:24.168Z,95
2019-04-21T13:59:22.507Z,95
2019-04-21T14:02:46.938Z,95
2019-04-21T14:05:26.778Z,95
2019-04-21T14:06:26.592Z,95
2019-04-21T14:07:24.077Z,95
2019-04-21T14:08:23.080Z,95
2019-04-21T14:09:21.835Z,95
2019-04-21T14:10:20.001Z,95
2019-04-21T14:11:19.750Z,95
2019-04-21T14:12:17.295Z,95
2019-04-21T14:13:16.424Z,95
2019-04-21T14:14:14.519Z,95
2019-04-21T14:15:14.607Z,95
2019-04-21T14:16:12.288Z,95
2019-04-21T14:17:11.302Z,95
2019-04-21T14:18:10.960Z,95
2019-04-21T14:19:09.567Z,95
2019-04-21T14:20:09.009Z,95
2019-04-21T14:21:07.214Z,95
2019-04-21T14:22:05.660Z,95
2019-04-21T14:23:15.338Z,95
2019-04-21T14:24:02.283Z,95
2019-04-21T14:25:01.766Z,95
2019-04-21T14:25:59.776Z,95
2019-04-21T14:26:58.420Z,95
2019-04-21T14:27:57.842Z,95
2019-04-21T14:28:56.799Z,95
2019-04-21T14:29:55.538Z,95
2019-04-21T14:30:54.342Z,95
2019-04-21T14:31:52.539Z,95
2019-04-21T14:32:51.972Z,95
2019-04-21T14:33:50.015Z,95
2019-04-21T14:34:50.196Z,95
2019-04-21T14:35:47.092Z,95
2019-04-21T14:36:46.544Z,95
2019-04-21T14:37:44.542Z,95
2019-04-21T14:38:43.057Z,95
2019-04-21T14:39:50.195Z,95
2019-04-21T14:40:40.347Z,95
2019-04-21T14:41:39.887Z,95
2019-04-21T14:42:38.211Z,95
2019-04-21T14:43:36.267Z,90
2019-04-21T14:44:34.821Z,90
2019-04-21T14:45:34.595Z,90
2019-04-21T14:46:33.163Z,80
2019-04-21T14:47:31.484Z,80
2019-04-21T14:48:29.710Z,90
2019-04-21T14:49:29.059Z,90
2019-04-21T14:50:28.159Z,90
2019-04-21T14:51:26.816Z,90
2019-04-21T14:52:25.261Z,90
2019-04-21T14:53:23.527Z,90
2019-04-21T14:54:22.501Z,90
2019-04-21T14:55:20.869Z,90
2019-04-21T14:56:19.364Z,90
2019-04-21T14:57:18.891Z,90
2019-04-21T14:58:17.174Z,90
2019-04-21T14:59:15.223Z,90
2019-04-21T15:00:15.348Z,90
2019-04-21T15:01:13.621Z,90
2019-04-21T15:02:11.729Z,90
2019-04-21T15:03:09.720Z,90
2019-04-21T15:04:08.279Z,90
2019-04-21T15:05:07.159Z,90
2019-04-21T15:06:05.747Z,90
2019-04-21T15:07:05.568Z,90
2019-04-21T15:08:03.405Z,90
2019-04-21T15:09:02.884Z,90
2019-04-21T15:10:09.667Z,90
2019-04-21T15:10:58.948Z,90
2019-04-21T15:11:58.164Z,90
2019-04-21T15:12:56.341Z,85
2019-04-21T15:13:55.890Z,90
2019-04-21T15:14:53.920Z,90
2019-04-21T15:15:54.183Z,90
2019-04-21T15:16:51.541Z,90
2019-04-21T15:17:51.480Z,85
2019-04-21T15:18:48.718Z,85
2019-04-21T15:19:50.705Z,85
2019-04-21T15:20:48.515Z,85
2019-04-21T15:21:44.696Z,85
2019-04-21T15:22:44.121Z,85
2019-04-21T15:23:42.405Z,85
2019-04-21T15:24:40.771Z,85
2019-04-21T15:25:39.594Z,85
2019-04-21T15:26:38.169Z,85
2019-04-21T15:27:36.960Z,85
2019-04-21T15:28:37.379Z,85
2019-04-21T15:29:34.971Z,85
2019-04-21T15:30:34.316Z,85
2019-04-21T15:31:34.413Z,85
2019-04-21T15:32:30.550Z,85
2019-04-21T15:33:28.818Z,85
2019-04-21T15:34:27.489Z,85
2019-04-21T15:35:26.910Z,85
2019-04-21T15:36:25.017Z,85
2019-04-21T15:37:24.085Z,85
2019-04-21T15:38:22.490Z,85
2019-04-21T15:39:21.447Z,85
2019-04-21T15:40:28.610Z,85
2019-04-21T15:41:18.610Z,85
2019-04-21T15:42:16.925Z,80
2019-04-21T15:43:15.684Z,80
2019-04-21T15:44:14.583Z,80
2019-04-21T15:45:12.971Z,80
2019-04-21T15:46:12.873Z,80
2019-04-21T15:47:10.349Z,80
2019-04-21T15:48:09.848Z,80
2019-04-21T15:49:09.161Z,80
2019-04-21T15:50:10.865Z,80
2019-04-21T15:51:07.053Z,80
2019-04-21T15:52:04.180Z,80
2019-04-21T15:53:03.188Z,80
2019-04-21T15:54:00.738Z,80
2019-04-21T15:55:00.812Z,80
2019-04-21T15:55:59.119Z,80
2019-04-21T15:56:56.942Z,75
2019-04-21T15:57:56.501Z,80
2019-04-21T15:58:54.570Z,75
2019-04-21T15:59:52.955Z,75
2019-04-21T16:00:52.419Z,75
2019-04-21T16:01:50.640Z,75
2019-04-21T16:02:48.789Z,75
2019-04-21T16:03:48.730Z,75
2019-04-21T16:04:46.483Z,75
2019-04-21T16:05:44.603Z,75
2019-04-21T16:06:43.623Z,75
2019-04-21T16:07:42.338Z,75
2019-04-21T16:08:40.192Z,75
2019-04-21T16:09:39.950Z,75
2019-04-21T16:10:45.120Z,75
2019-04-21T16:11:37.756Z,70
2019-04-21T16:12:36.005Z,70
2019-04-21T16:13:34.083Z,70
2019-04-21T16:14:32.489Z,70
2019-04-21T16:15:32.483Z,70
2019-04-21T16:16:31.014Z,70
2019-04-21T16:17:29.582Z,70
2019-04-21T16:18:27.923Z,70
2019-04-21T16:19:27.156Z,70
2019-04-21T16:20:24.278Z,70
2019-04-21T16:21:24.181Z,70